Time;durP1;ratioP1;P1;durP2;ratioP2;P2;SDS_P1;SDS_P2;PMS_P1;PMS_P2;Temp;Humidity;BMP_temperature;BMP_pressure;BME280_temperature;BME280_humidity;BME280_pressure;Samples;Min_cycle;Max_cycle;Signal;HPM_P1;HPM_P2
2021/12/26 00:01:21;;;;;;;;;;;;;;;3.02;71.61;98606.44;4947321;28;19925;-90
2021/12/26 00:03:46;;;;;;;;;;;;;;;3.06;71.73;98610.69;4963924;28;19918;-89
2021/12/26 00:06:15;;;;;;;;;;;;;;;3.07;71.63;98609.75;4945533;28;19922;-88
2021/12/26 00:08:41;;;;;;;;;;;;;;;3.07;71.64;98615.00;4947623;28;19924;-88
2021/12/26 00:11:07;;;;;;;;;;;;;;;3.08;71.70;98606.25;4963187;28;19918;-85
2021/12/26 00:13:32;;;;;;;;;;;;;;;3.11;71.60;98609.66;4963491;28;20433;-88
2021/12/26 00:15:58;;;;;;;;;;;;;;;3.08;71.32;98606.25;4962338;28;19922;-85
2021/12/26 00:18:24;;;;;;;;;;;;;;;3.10;71.19;98608.81;4963219;28;19919;-87
2021/12/26 00:20:49;;;;;;;;;;;;;;;3.13;71.25;98616.59;4945167;28;19921;-86
2021/12/26 00:23:16;;;;;;;;;;;;;;;3.16;71.35;98619.09;4963995;28;19957;-89
2021/12/26 00:25:44;;;;;;;;;;;;;;;3.16;71.02;98618.22;4946116;28;19918;-88
2021/12/26 00:28:09;;;;;;;;;;;;;;;3.17;71.30;98609.47;4945979;28;19918;-86
2021/12/26 00:30:35;;;;;;;;;;;;;;;3.16;71.10;98603.41;4963089;28;19977;-87
2021/12/26 00:33:00;;;;;;;;;;;;;;;3.20;71.03;98609.38;4963185;28;19964;-90
2021/12/26 00:35:26;;;;;;;;;;;;;;;3.21;71.20;98604.09;4962158;28;19922;-89
2021/12/26 00:37:51;;;;;;;;;;;;;;;3.20;71.36;98610.22;4962883;28;19919;-83
2021/12/26 00:40:19;;;;;;;;;;;;;;;3.20;71.12;98605.00;4963293;28;19922;-84
2021/12/26 00:42:45;;;;;;;;;;;;;;;3.23;71.11;98606.69;4963000;28;19924;-86
2021/12/26 00:45:10;;;;;;;;;;;;;;;3.23;71.12;98606.69;4946212;28;20005;-91
2021/12/26 04:24:00;;;;;;;;;;;;;;;3.39;97.36;98610.50;5435874;23;19927;-84
2021/12/26 04:26:26;;;;;;;;;;;;;;;3.32;96.78;98609.00;4951701;28;20341;-85
2021/12/26 04:28:52;;;;;;;;;;;;;;;3.33;96.79;98604.63;4950126;28;20030;-86
2021/12/26 04:31:17;;;;;;;;;;;;;;;3.27;96.62;98610.88;4974342;28;19918;-87
2021/12/26 04:33:42;;;;;;;;;;;;;;;3.22;96.56;98604.94;4968094;28;19926;-86
2021/12/26 04:36:08;;;;;;;;;;;;;;;3.21;96.30;98598.88;4966746;28;19965;-85
2021/12/26 04:38:33;;;;;;;;;;;;;;;3.18;96.14;98600.75;4948591;28;19922;-86
2021/12/26 04:40:58;;;;;;;;;;;;;;;3.21;95.67;98605.88;4967899;28;20262;-85
2021/12/26 04:43:26;;;;;;;;;;;;;;;3.25;96.63;98607.47;4949685;28;20316;-87
2021/12/26 04:45:51;;;;;;;;;;;;;;;3.36;99.54;98600.13;4949307;28;19918;-86
2021/12/26 04:48:16;;;;;;;;;;;;;;;3.42;100.00;98599.94;4966545;28;20320;-85
2021/12/26 04:50:42;;;;;;;;;;;;;;;3.35;100.00;98598.44;4966974;28;20427;-83
2021/12/26 04:53:08;;;;;;;;;;;;;;;3.39;100.00;98600.03;4965217;28;19922;-84
2021/12/26 04:55:33;;;;;;;;;;;;;;;3.21;100.00;98605.88;4966374;28;19926;-84
2021/12/26 04:57:58;;;;;;;;;;;;;;;3.22;100.00;98597.09;4949696;28;19965;-83
2021/12/26 05:00:26;;;;;;;;;;;;;;;3.21;100.00;98600.66;4949686;28;20009;-83
2021/12/26 05:02:51;;;;;;;;;;;;;;;3.18;100.00;98603.34;4957442;28;19918;-86
2021/12/26 05:05:17;;;;;;;;;;;;;;;3.11;100.00;98601.81;4949143;28;19929;-84
2021/12/26 05:07:43;;;;;;;;;;;;;;;3.06;100.00;98600.22;4971523;28;20045;-88
2021/12/26 05:10:09;;;;;;;;;;;;;;;3.09;100.00;98596.63;4948734;28;19925;-85
2021/12/26 05:12:36;;;;;;;;;;;;;;;3.02;99.67;98595.97;4966726;28;19929;-84
2021/12/26 05:15:03;;;;;;;;;;;;;;;3.03;99.35;98596.81;4966301;28;20324;-88
2021/12/26 05:17:30;;;;;;;;;;;;;;;2.92;99.08;98597.19;4966215;28;20365;-83
2021/12/26 05:19:55;;;;;;;;;;;;;;;2.79;99.00;98595.81;4948320;28;19929;-83
2021/12/26 05:22:20;;;;;;;;;;;;;;;2.80;98.95;98597.53;4966225;28;19918;-83
2021/12/26 05:24:46;;;;;;;;;;;;;;;2.78;98.78;98599.34;4964930;28;19926;-87
2021/12/26 05:27:11;;;;;;;;;;;;;;;2.72;98.37;98598.63;4965913;28;19919;-83
2021/12/26 05:29:36;;;;;;;;;;;;;;;2.70;98.23;98597.81;4965718;28;19918;-87
2021/12/26 05:32:02;;;;;;;;;;;;;;;2.70;97.84;98594.34;4967143;28;19924;-84
2021/12/26 05:34:27;;;;;;;;;;;;;;;2.65;97.44;98604.94;4965040;28;19929;-83
2021/12/26 05:36:52;;;;;;;;;;;;;;;2.63;97.06;98596.28;4965770;28;20333;-83
2021/12/26 05:39:17;;;;;;;;;;;;;;;2.63;96.90;98598.03;4946987;28;19926;-88
2021/12/26 05:41:43;;;;;;;;;;;;;;;2.56;96.60;98589.50;4948507;28;19922;-89
2021/12/26 05:44:09;;;;;;;;;;;;;;;2.57;96.31;98593.84;4948564;28;20262;-84
2021/12/26 05:46:35;;;;;;;;;;;;;;;2.52;95.74;98587.88;4948057;28;19919;-88
2021/12/26 05:49:00;;;;;;;;;;;;;;;2.54;95.37;98588.72;4971866;28;20358;-83
2021/12/26 05:51:25;;;;;;;;;;;;;;;2.52;95.16;98595.72;4965272;28;19946;-84
2021/12/26 05:53:51;;;;;;;;;;;;;;;2.50;94.68;98592.31;4946651;28;19922;-86
2021/12/26 05:56:16;;;;;;;;;;;;;;;2.49;94.31;98590.59;4948507;28;19922;-88
2021/12/26 05:58:41;;;;;;;;;;;;;;;2.44;94.08;98595.09;4965560;28;19922;-89
2021/12/26 06:01:07;;;;;;;;;;;;;;;2.44;93.93;98588.13;4965079;28;20285;-82
2021/12/26 06:03:32;;;;;;;;;;;;;;;2.41;93.38;98582.97;4964966;28;20288;-85
2021/12/26 06:05:57;;;;;;;;;;;;;;;2.39;92.90;98581.31;4965719;28;19918;-88
2021/12/26 06:08:22;;;;;;;;;;;;;;;2.48;92.74;98589.72;4964241;28;19997;-84
2021/12/26 06:10:48;;;;;;;;;;;;;;;2.40;91.91;98591.72;4965027;28;19918;-84
2021/12/26 06:13:13;;;;;;;;;;;;;;;2.47;91.47;98592.38;4964989;28;20080;-82
2021/12/26 06:15:38;;;;;;;;;;;;;;;2.48;90.91;98596.72;4965573;28;20768;-83
2021/12/26 06:18:04;;;;;;;;;;;;;;;2.41;90.80;98590.81;4964963;28;19925;-83
2021/12/26 06:20:29;;;;;;;;;;;;;;;2.41;90.35;98595.19;4964935;28;19938;-84
2021/12/26 06:22:54;;;;;;;;;;;;;;;2.32;90.08;98591.94;4963781;28;20004;-85
2021/12/26 06:25:20;;;;;;;;;;;;;;;2.26;90.11;98594.72;4965150;28;20296;-87
2021/12/26 06:27:45;;;;;;;;;;;;;;;2.26;89.85;98593.88;4965194;28;19925;-88
2021/12/26 06:30:11;;;;;;;;;;;;;;;2.27;89.84;98591.22;4964349;28;20475;-86
2021/12/26 06:32:37;;;;;;;;;;;;;;;2.23;89.71;98592.19;4964917;28;20423;-86
2021/12/26 06:35:03;;;;;;;;;;;;;;;2.23;89.58;98597.41;4964693;28;19918;-85
2021/12/26 06:37:29;;;;;;;;;;;;;;;2.21;89.30;98591.38;4963848;28;19929;-86
2021/12/26 06:39:54;;;;;;;;;;;;;;;2.19;89.10;98595.81;4964069;28;20899;-87
2021/12/26 06:42:19;;;;;;;;;;;;;;;2.13;88.88;98596.81;4964743;28;20012;-84
2021/12/26 06:44:45;;;;;;;;;;;;;;;2.12;88.60;98592.50;4964641;28;20381;-87
2021/12/26 06:47:10;;;;;;;;;;;;;;;2.12;88.16;98602.09;4964004;28;19962;-87
2021/12/26 06:49:36;;;;;;;;;;;;;;;2.13;88.40;98595.97;4964167;28;20378;-84
2021/12/26 06:52:01;;;;;;;;;;;;;;;2.22;89.66;98587.88;4964635;28;20362;-84
2021/12/26 06:54:26;;;;;;;;;;;;;;;2.33;91.46;98596.28;4963013;28;19926;-84
2021/12/26 06:56:51;;;;;;;;;;;;;;;2.36;92.76;98600.53;4964130;28;19922;-83
2021/12/26 06:59:17;;;;;;;;;;;;;;;2.35;93.10;98599.69;4964135;28;19918;-86
2021/12/26 07:01:42;;;;;;;;;;;;;;;2.34;93.25;98602.34;4947241;28;19930;-86
2021/12/26 07:04:08;;;;;;;;;;;;;;;2.29;93.13;98605.09;4963867;28;20309;-85
2021/12/26 07:06:33;;;;;;;;;;;;;;;2.27;93.04;98599.06;4946418;28;19941;-86
2021/12/26 07:08:58;;;;;;;;;;;;;;;2.29;92.76;98597.25;4945807;28;20284;-86
2021/12/26 07:11:23;;;;;;;;;;;;;;;2.24;92.34;98604.38;4947156;28;19969;-86
2021/12/26 07:13:49;;;;;;;;;;;;;;;2.22;91.96;98603.56;4963923;28;19940;-85
2021/12/26 07:16:14;;;;;;;;;;;;;;;2.18;91.75;98608.00;4963552;28;19923;-87
2021/12/26 07:18:39;;;;;;;;;;;;;;;2.19;91.29;98606.25;4963854;28;19925;-85
2021/12/26 07:21:05;;;;;;;;;;;;;;;2.18;90.96;98607.16;4964024;28;19928;-86
2021/12/26 07:23:30;;;;;;;;;;;;;;;2.16;90.67;98611.56;4962753;28;19918;-86
2021/12/26 07:25:55;;;;;;;;;;;;;;;2.12;90.39;98610.81;4964127;28;19933;-86
2021/12/26 07:28:21;;;;;;;;;;;;;;;2.14;90.15;98610.75;4964104;28;19949;-86
2021/12/26 07:30:46;;;;;;;;;;;;;;;2.15;89.76;98609.84;4964018;28;20294;-86
2021/12/26 07:33:11;;;;;;;;;;;;;;;2.11;89.29;98610.84;4964621;28;19922;-86
2021/12/26 07:35:36;;;;;;;;;;;;;;;2.11;88.96;98610.84;4963715;28;20081;-85
2021/12/26 07:38:02;;;;;;;;;;;;;;;2.14;88.75;98613.38;4962611;28;19919;-85
2021/12/26 07:40:27;;;;;;;;;;;;;;;2.12;88.38;98613.41;4963397;28;19918;-85
2021/12/26 07:42:53;;;;;;;;;;;;;;;2.14;88.14;98621.22;4946580;28;20045;-85
2021/12/26 13:50:40;;;;;;;;;;;;;;;4.44;100.00;98490.66;4966692;28;19933;-86
2021/12/26 13:53:07;;;;;;;;;;;;;;;4.52;100.00;98499.09;4973931;28;19929;-86
2021/12/26 13:55:34;;;;;;;;;;;;;;;4.55;100.00;98489.31;4972524;28;19918;-86
2021/12/26 13:57:59;;;;;;;;;;;;;;;4.61;100.00;98483.00;4957325;28;19918;-85
2021/12/26 14:00:25;;;;;;;;;;;;;;;4.67;100.00;98481.88;4974451;28;19929;-86
2021/12/26 14:02:51;;;;;;;;;;;;;;;4.71;100.00;98489.56;4956826;28;19977;-87
2021/12/26 14:05:18;;;;;;;;;;;;;;;4.77;100.00;98479.72;4973441;28;19991;-85
2021/12/26 14:07:49;;;;;;;;;;;;;;;4.83;100.00;98482.13;4974087;28;19926;-85
2021/12/26 14:10:14;;;;;;;;;;;;;;;4.87;100.00;98479.31;4974311;28;20369;-86
2021/12/26 14:12:42;;;;;;;;;;;;;;;4.87;100.00;98479.31;4974657;28;19925;-86
2021/12/26 14:15:28;;;;;;;;;;;;;;;4.93;100.00;98482.59;4974674;28;19957;-87
2021/12/26 14:17:53;;;;;;;;;;;;;;;4.93;100.00;98478.22;4974130;28;19953;-88
2021/12/26 14:20:18;;;;;;;;;;;;;;;4.97;100.00;98489.44;4973303;28;20008;-87
2021/12/26 14:22:44;;;;;;;;;;;;;;;4.98;100.00;98485.88;4974607;28;20297;-87
2021/12/26 14:25:12;;;;;;;;;;;;;;;5.03;100.00;98489.19;4974436;28;19976;-87
2021/12/26 14:27:40;;;;;;;;;;;;;;;4.56;100.00;98492.78;4974407;28;19918;-87
2021/12/26 14:30:06;;;;;;;;;;;;;;;3.88;100.00;98495.34;4973835;28;19926;-88
2021/12/26 14:32:31;;;;;;;;;;;;;;;3.64;100.00;98492.69;4974021;28;19940;-86
2021/12/26 14:34:57;;;;;;;;;;;;;;;3.48;100.00;98490.63;4972880;28;19977;-87
2021/12/26 14:37:23;;;;;;;;;;;;;;;3.37;100.00;98478.78;4974468;28;19917;-86
2021/12/26 14:39:53;;;;;;;;;;;;;;;3.33;100.00;98479.78;4974246;28;19918;-87
2021/12/26 14:42:26;;;;;;;;;;;;;;;3.25;100.00;98485.28;4972569;28;19922;-85
2021/12/26 14:44:54;;;;;;;;;;;;;;;3.17;99.84;98483.84;4974098;28;20052;-87
2021/12/26 14:47:26;;;;;;;;;;;;;;;3.18;98.97;98485.56;4974214;28;19969;-86
2021/12/26 14:49:53;;;;;;;;;;;;;;;3.16;97.85;98485.59;4955350;28;19925;-88
2021/12/26 14:52:19;;;;;;;;;;;;;;;3.06;96.89;98484.19;4974169;28;20387;-86
2021/12/26 14:54:46;;;;;;;;;;;;;;;3.06;95.97;98481.56;4956327;28;20025;-86
2021/12/26 14:57:23;;;;;;;;;;;;;;;3.04;95.27;98489.47;4974004;28;19918;-86
2021/12/26 14:59:51;;;;;;;;;;;;;;;3.01;94.70;98488.72;4955820;28;20367;-85
2021/12/26 15:02:18;;;;;;;;;;;;;;;2.97;93.99;98490.59;4973985;28;19918;-85
2021/12/26 15:04:45;;;;;;;;;;;;;;;2.90;93.27;98489.06;4972341;28;20315;-86
2021/12/26 15:07:14;;;;;;;;;;;;;;;2.99;92.89;98480.91;4973940;28;19918;-86
2021/12/26 15:09:45;;;;;;;;;;;;;;;2.91;92.20;98483.78;4973222;28;19926;-87
2021/12/26 15:12:29;;;;;;;;;;;;;;;2.86;91.50;98477.00;4973360;28;19918;-88
2021/12/26 15:15:12;;;;;;;;;;;;;;;2.92;91.17;98484.66;4973678;28;20262;-86
2021/12/26 15:17:38;;;;;;;;;;;;;;;2.85;90.63;98480.50;4973802;28;20357;-88
2021/12/26 15:20:22;;;;;;;;;;;;;;;2.86;90.07;98479.63;4972076;28;20009;-88
2021/12/26 15:22:47;;;;;;;;;;;;;;;2.76;89.63;98475.56;4972625;28;19962;-84
2021/12/26 15:25:12;;;;;;;;;;;;;;;2.75;89.48;98474.72;4973404;28;20004;-84
2021/12/26 15:27:38;;;;;;;;;;;;;;;2.75;89.21;98468.66;4972443;28;19972;-86
2021/12/26 15:30:20;;;;;;;;;;;;;;;2.65;89.04;98471.53;4956283;28;19922;-86
2021/12/26 15:32:46;;;;;;;;;;;;;;;2.65;88.58;98479.41;4973138;28;19938;-87
2021/12/26 15:35:11;;;;;;;;;;;;;;;2.67;88.57;98469.72;4972060;28;19922;-86
2021/12/26 15:37:36;;;;;;;;;;;;;;;2.63;88.30;98469.88;4972873;28;19925;-85
2021/12/26 15:40:05;;;;;;;;;;;;;;;2.65;87.95;98474.16;4971539;28;20202;-86
2021/12/26 15:42:31;;;;;;;;;;;;;;;2.57;87.64;98473.56;4972686;28;19985;-84
2021/12/26 15:44:56;;;;;;;;;;;;;;;2.49;87.87;98468.56;4973350;28;19961;-87
2021/12/26 15:47:21;;;;;;;;;;;;;;;2.49;87.66;98470.28;4973219;28;19922;-87
2021/12/26 15:49:46;;;;;;;;;;;;;;;2.53;87.69;98467.53;4971767;28;20365;-84
2021/12/26 15:52:12;;;;;;;;;;;;;;;2.48;87.35;98463.38;4973011;28;19965;-85
2021/12/26 15:54:39;;;;;;;;;;;;;;;2.48;87.21;98458.16;4972999;28;20004;-86
2021/12/26 15:57:04;;;;;;;;;;;;;;;2.44;87.11;98461.75;4973398;28;20001;-85
2021/12/26 15:59:30;;;;;;;;;;;;;;;2.39;86.85;98468.88;4973136;28;20094;-86
2021/12/26 16:01:55;;;;;;;;;;;;;;;2.36;86.94;98462.84;4972986;28;19929;-87
2021/12/26 16:04:20;;;;;;;;;;;;;;;2.29;86.77;98469.16;4970623;28;19918;-88
2021/12/26 16:06:45;;;;;;;;;;;;;;;2.25;87.02;98472.78;4971474;28;20283;-89
2021/12/26 16:09:11;;;;;;;;;;;;;;;2.21;86.98;98468.53;4973152;28;19918;-85
2021/12/26 16:11:37;;;;;;;;;;;;;;;2.22;87.08;98469.38;4971685;28;19922;-87
2021/12/26 16:14:03;;;;;;;;;;;;;;;2.22;87.05;98467.66;4972985;28;19950;-85
2021/12/26 16:16:28;;;;;;;;;;;;;;;2.19;87.01;98472.97;4972695;28;19969;-88
2021/12/26 16:18:53;;;;;;;;;;;;;;;2.18;87.19;98469.47;4971480;28;20336;-89
2021/12/26 16:21:19;;;;;;;;;;;;;;;2.16;87.07;98473.06;4959289;28;19941;-87
2021/12/26 16:23:44;;;;;;;;;;;;;;;2.13;87.01;98468.75;4959517;28;20377;-88
2021/12/26 16:26:09;;;;;;;;;;;;;;;2.16;86.92;98470.44;4976770;28;19925;-87
2021/12/26 16:28:39;;;;;;;;;;;;;;;2.11;86.67;98472.34;4976444;28;19933;-86
2021/12/26 16:31:05;;;;;;;;;;;;;;;2.10;86.62;98473.22;4976837;28;19929;-87
2021/12/26 16:33:30;;;;;;;;;;;;;;;2.12;86.40;98476.63;4957889;28;20260;-89
2021/12/26 16:35:55;;;;;;;;;;;;;;;2.13;86.51;98473.13;4976306;28;19922;-88
2021/12/26 16:38:20;;;;;;;;;;;;;;;2.10;86.30;98479.28;4959053;28;19926;-85
2021/12/26 16:40:47;;;;;;;;;;;;;;;2.10;86.16;98475.84;4975179;28;19922;-87
2021/12/26 16:43:16;;;;;;;;;;;;;;;2.03;86.23;98472.56;4976350;28;19926;-87
2021/12/26 16:45:42;;;;;;;;;;;;;;;2.04;86.18;98473.41;4976284;28;19925;-87
2021/12/26 16:48:07;;;;;;;;;;;;;;;2.04;85.98;98471.63;4958544;28;19918;-87
2021/12/26 16:50:35;;;;;;;;;;;;;;;2.03;85.85;98469.06;4975187;28;19922;-84
2021/12/26 16:53:00;;;;;;;;;;;;;;;2.03;85.77;98466.44;4958826;28;19918;-89
2021/12/26 16:55:26;;;;;;;;;;;;;;;2.00;85.52;98459.56;4958737;28;20337;-88
2021/12/26 16:57:52;;;;;;;;;;;;;;;2.00;85.56;98456.97;4976332;28;19918;-89
2021/12/26 17:00:17;;;;;;;;;;;;;;;2.00;85.21;98460.44;4976203;28;19969;-88
2021/12/26 17:02:43;;;;;;;;;;;;;;;1.95;85.26;98459.72;4958803;28;19957;-89
2021/12/26 17:05:08;;;;;;;;;;;;;;;1.94;85.00;98463.22;4973423;28;20262;-88
2021/12/26 17:07:34;;;;;;;;;;;;;;;1.96;85.12;98460.56;4976087;28;19918;-88
2021/12/26 17:09:59;;;;;;;;;;;;;;;1.94;84.92;98450.16;4958535;28;19974;-86
2021/12/26 17:12:24;;;;;;;;;;;;;;;1.93;84.79;98461.53;4976081;28;19942;-86
2021/12/26 17:14:50;;;;;;;;;;;;;;;1.91;84.83;98462.44;4975804;28;20168;-88
2021/12/26 17:17:15;;;;;;;;;;;;;;;1.92;84.72;98470.25;4975952;28;19929;-87
2021/12/26 17:19:40;;;;;;;;;;;;;;;1.94;84.54;98459.75;4974426;28;19997;-88
2021/12/26 17:22:06;;;;;;;;;;;;;;;1.91;84.32;98463.28;4975661;28;20016;-85
2021/12/26 17:24:33;;;;;;;;;;;;;;;1.88;84.32;98463.38;4958465;28;20017;-88
2021/12/26 17:27:15;;;;;;;;;;;;;;;1.93;84.32;98452.81;4975599;28;19972;-88
2021/12/26 17:29:40;;;;;;;;;;;;;;;1.92;84.11;98454.56;4975230;28;19925;-88
2021/12/26 17:32:05;;;;;;;;;;;;;;;1.91;84.12;98454.63;4956908;28;19928;-87
2021/12/26 17:34:31;;;;;;;;;;;;;;;1.89;84.10;98457.28;4956777;28;19929;-86
2021/12/26 17:36:56;;;;;;;;;;;;;;;1.88;84.11;98452.94;4975446;28;20331;-89
2021/12/26 17:39:21;;;;;;;;;;;;;;;1.87;84.08;98459.06;4974211;28;20514;-86
2021/12/26 17:41:46;;;;;;;;;;;;;;;1.89;84.09;98465.09;4975354;28;19918;-89
2021/12/26 17:44:12;;;;;;;;;;;;;;;1.88;83.96;98463.38;4975515;28;20360;-87
2021/12/26 17:46:37;;;;;;;;;;;;;;;1.90;84.00;98453.78;4975443;28;19926;-87
2021/12/26 17:49:02;;;;;;;;;;;;;;;1.87;83.80;98455.59;4973960;28;20471;-88
2021/12/26 17:51:27;;;;;;;;;;;;;;;1.87;83.53;98455.59;4975225;28;19973;-88
2021/12/26 17:53:53;;;;;;;;;;;;;;;1.85;83.56;98452.19;4975090;28;20312;-84
2021/12/26 17:56:19;;;;;;;;;;;;;;;1.86;83.22;98465.19;4957823;28;19918;-88
2021/12/26 17:58:44;;;;;;;;;;;;;;;1.85;83.00;98458.28;4975249;28;19921;-85
2021/12/26 18:01:09;;;;;;;;;;;;;;;1.86;82.99;98454.75;4957683;28;19929;-84
2021/12/26 18:03:35;;;;;;;;;;;;;;;1.85;82.71;98455.66;4973588;28;20445;-88
2021/12/26 18:06:00;;;;;;;;;;;;;;;1.84;82.88;98450.47;4974972;28;20360;-87
2021/12/26 18:08:26;;;;;;;;;;;;;;;1.85;82.80;98454.78;4975006;28;20385;-87
2021/12/26 18:10:52;;;;;;;;;;;;;;;1.86;82.88;98453.91;4957525;28;19922;-87
2021/12/26 18:13:17;;;;;;;;;;;;;;;1.87;82.71;98452.97;4973562;28;20325;-87
2021/12/26 18:15:43;;;;;;;;;;;;;;;1.84;82.40;98456.56;4957386;28;19937;-88
2021/12/26 18:18:08;;;;;;;;;;;;;;;1.83;82.51;98452.22;4974213;28;20009;-86
2021/12/26 18:20:35;;;;;;;;;;;;;;;1.79;82.51;98443.63;4956451;28;19925;-88
2021/12/26 18:23:01;;;;;;;;;;;;;;;1.84;82.41;98451.31;4956572;28;19922;-89
2021/12/26 18:25:26;;;;;;;;;;;;;;;1.84;82.23;98447.88;4957380;28;19922;-88
2021/12/26 18:27:52;;;;;;;;;;;;;;;1.80;82.10;98444.47;4956729;28;19922;-89
2021/12/26 18:30:19;;;;;;;;;;;;;;;1.87;81.94;98446.03;4956070;28;19926;-88
2021/12/26 18:32:45;;;;;;;;;;;;;;;1.87;81.77;98443.41;4957155;28;19977;-88
2021/12/26 18:35:10;;;;;;;;;;;;;;;1.84;81.58;98443.50;4971789;28;19918;-89
2021/12/26 18:37:36;;;;;;;;;;;;;;;1.81;81.55;98440.97;4956888;28;20456;-87
2021/12/26 18:40:02;;;;;;;;;;;;;;;1.85;81.15;98440.00;4957021;28;19922;-87
2021/12/26 18:42:27;;;;;;;;;;;;;;;1.81;80.95;98446.19;4956634;28;19972;-91
2021/12/26 18:44:52;;;;;;;;;;;;;;;1.81;81.01;98446.19;4956891;28;19945;-88
2021/12/26 18:47:18;;;;;;;;;;;;;;;1.83;80.95;98444.38;4974158;28;19925;-87
2021/12/26 18:49:43;;;;;;;;;;;;;;;1.87;80.98;98448.63;4973057;28;20293;-87
2021/12/26 18:52:09;;;;;;;;;;;;;;;1.83;80.73;98448.75;4955998;28;20009;-85
2021/12/26 18:54:34;;;;;;;;;;;;;;;1.83;80.72;98440.91;4971300;28;19929;-85
2021/12/26 18:56:59;;;;;;;;;;;;;;;1.84;80.72;98437.44;4970620;28;19922;-84
2021/12/26 18:59:25;;;;;;;;;;;;;;;1.86;80.64;98438.22;4972922;28;19937;-88
2021/12/26 19:01:50;;;;;;;;;;;;;;;1.87;80.56;98440.78;4955461;28;20396;-88
2021/12/26 19:04:16;;;;;;;;;;;;;;;1.84;80.30;98438.25;4969842;28;20385;-88
2021/12/26 19:06:42;;;;;;;;;;;;;;;1.86;80.13;98438.22;4956166;28;20373;-87
2021/12/26 19:09:08;;;;;;;;;;;;;;;1.83;80.04;98436.53;4972751;28;19926;-87
2021/12/26 19:11:33;;;;;;;;;;;;;;;1.86;79.90;98433.00;4972514;28;19969;-88
2021/12/26 19:13:59;;;;;;;;;;;;;;;1.84;79.99;98435.66;4972837;28;20020;-89
2021/12/26 19:16:24;;;;;;;;;;;;;;;1.88;79.78;98439.88;4955590;28;20309;-89
2021/12/26 19:18:51;;;;;;;;;;;;;;;1.88;79.82;98441.63;4953780;28;19972;-88
2021/12/26 19:21:16;;;;;;;;;;;;;;;1.89;79.79;98433.75;4971138;28;19921;-91
2021/12/26 19:23:42;;;;;;;;;;;;;;;1.89;79.66;98433.75;4954557;28;20060;-90
2021/12/26 19:26:07;;;;;;;;;;;;;;;1.87;79.54;98438.19;4972632;28;19977;-92
2021/12/26 19:28:36;;;;;;;;;;;;;;;1.90;79.32;98435.47;4970769;28;19922;-88
2021/12/26 19:31:01;;;;;;;;;;;;;;;1.91;79.17;98431.94;4972694;28;20490;-89
2021/12/26 19:33:31;;;;;;;;;;;;;;;1.89;78.83;98436.38;4970608;28;19918;-89
2021/12/26 19:35:57;;;;;;;;;;;;;;;1.96;78.90;98444.88;4954967;28;19930;-91
2021/12/26 19:38:23;;;;;;;;;;;;;;;1.94;78.67;98437.09;4955415;28;19944;-88
2021/12/26 19:40:49;;;;;;;;;;;;;;;1.95;78.56;98438.81;4954561;28;19937;-89
2021/12/26 19:43:15;;;;;;;;;;;;;;;1.95;78.55;98438.81;4972107;28;19922;-87
2021/12/26 19:45:45;;;;;;;;;;;;;;;1.95;78.43;98435.34;4954616;28;19922;-90
2021/12/26 19:48:10;;;;;;;;;;;;;;;1.95;78.41;98433.59;4971823;28;19926;-91
2021/12/26 19:50:36;;;;;;;;;;;;;;;2.00;78.41;98436.06;4970060;28;20605;-88
2021/12/26 19:53:02;;;;;;;;;;;;;;;1.97;78.08;98431.78;4971771;28;19941;-92
2021/12/26 19:55:27;;;;;;;;;;;;;;;2.03;78.08;98438.59;4954861;28;20056;-91
2021/12/26 19:57:52;;;;;;;;;;;;;;;2.00;77.98;98436.91;4971670;28;19926;-89
2021/12/26 20:00:18;;;;;;;;;;;;;;;2.05;77.97;98441.16;4971591;28;19941;-85
2021/12/26 20:02:43;;;;;;;;;;;;;;;2.04;77.89;98440.28;4972265;28;19926;-89
2021/12/26 20:05:08;;;;;;;;;;;;;;;2.04;77.71;98439.44;4971415;28;19985;-87
2021/12/26 20:07:34;;;;;;;;;;;;;;;2.03;77.68;98435.97;4972493;28;19972;-86
2021/12/26 20:09:59;;;;;;;;;;;;;;;2.06;77.66;98441.13;4972725;28;20073;-87
2021/12/26 20:12:24;;;;;;;;;;;;;;;2.08;77.49;98430.63;4955208;28;19922;-86
2021/12/26 20:14:49;;;;;;;;;;;;;;;2.08;77.42;98428.00;4971336;28;19922;-92
2021/12/26 20:17:15;;;;;;;;;;;;;;;2.09;77.34;98433.19;4954294;28;19930;-88
2021/12/26 20:19:40;;;;;;;;;;;;;;;2.12;77.27;98440.06;4971637;28;19933;-91
2021/12/26 20:22:06;;;;;;;;;;;;;;;2.14;77.24;98440.88;4954672;28;20366;-90
2021/12/26 20:24:31;;;;;;;;;;;;;;;2.13;77.08;98426.09;4972330;28;19930;-91
2021/12/26 20:26:56;;;;;;;;;;;;;;;2.14;77.25;98426.06;4971289;28;19977;-93
2021/12/26 20:29:22;;;;;;;;;;;;;;;2.18;77.14;98432.88;4971876;28;20258;-89
2021/12/26 20:31:47;;;;;;;;;;;;;;;2.17;77.06;98432.94;4972080;28;20272;-88
2021/12/26 20:34:13;;;;;;;;;;;;;;;2.19;76.84;98436.38;4970789;28;19926;-86
2021/12/26 20:36:38;;;;;;;;;;;;;;;2.22;76.91;98433.66;4955043;28;19930;-86
2021/12/26 20:39:05;;;;;;;;;;;;;;;2.18;76.74;98432.88;4955117;28;19969;-87
2021/12/26 20:41:32;;;;;;;;;;;;;;;2.21;76.65;98429.31;4972172;28;19950;-86
2021/12/26 20:43:57;;;;;;;;;;;;;;;2.20;76.49;98430.22;4972382;28;19931;-91
2021/12/26 20:46:23;;;;;;;;;;;;;;;2.24;76.48;98424.00;4954087;28;20358;-85
2021/12/26 20:48:48;;;;;;;;;;;;;;;2.24;76.32;98434.47;4953327;28;20389;-90
2021/12/26 20:51:14;;;;;;;;;;;;;;;2.28;76.40;98425.63;4971982;28;19937;-87
2021/12/26 20:53:41;;;;;;;;;;;;;;;2.27;76.29;98429.16;4954886;28;19922;-87
2021/12/26 20:56:07;;;;;;;;;;;;;;;2.29;76.45;98422.09;4954978;28;20282;-91
2021/12/26 20:58:35;;;;;;;;;;;;;;;2.31;76.32;98416.81;4969933;28;19922;-91
2021/12/26 21:01:00;;;;;;;;;;;;;;;2.31;76.15;98419.44;4971380;28;19918;-90
2021/12/26 21:03:26;;;;;;;;;;;;;;;2.31;75.84;98412.47;4970990;28;19980;-90
2021/12/26 21:05:51;;;;;;;;;;;;;;;2.29;75.73;98411.66;4956155;28;19942;-90
2021/12/26 21:08:19;;;;;;;;;;;;;;;2.35;75.71;98411.47;4975057;28;19918;-90
2021/12/26 21:10:45;;;;;;;;;;;;;;;2.34;75.54;98409.72;4957208;28;19929;-90
2021/12/26 21:13:10;;;;;;;;;;;;;;;2.39;75.72;98416.59;4957262;28;19918;-88
2021/12/26 21:15:36;;;;;;;;;;;;;;;2.35;75.52;98416.69;4974698;28;19926;-86
2021/12/26 21:18:01;;;;;;;;;;;;;;;2.41;75.42;98414.78;4958450;28;19929;-86
2021/12/26 21:20:26;;;;;;;;;;;;;;;2.40;75.41;98413.09;4974195;28;20033;-87
2021/12/26 21:22:52;;;;;;;;;;;;;;;2.39;75.27;98412.22;4958395;28;20321;-87
2021/12/26 21:25:18;;;;;;;;;;;;;;;2.41;75.08;98404.31;4975402;28;19938;-87
2021/12/26 21:27:43;;;;;;;;;;;;;;;2.42;75.21;98416.50;4974433;28;19930;-91
2021/12/26 21:30:10;;;;;;;;;;;;;;;2.43;75.13;98415.59;4957532;28;20391;-87
2021/12/26 21:32:35;;;;;;;;;;;;;;;2.42;75.14;98411.28;4957688;28;19929;-85
2021/12/26 21:35:02;;;;;;;;;;;;;;;2.43;75.10;98410.38;4973807;28;20342;-92
2021/12/26 21:37:27;;;;;;;;;;;;;;;2.45;75.04;98416.41;4974889;28;19926;-86
2021/12/26 21:39:52;;;;;;;;;;;;;;;2.48;75.04;98419.78;4975049;28;20387;-87
2021/12/26 21:42:18;;;;;;;;;;;;;;;2.47;75.12;98419.81;4957677;28;19930;-90
2021/12/26 21:44:44;;;;;;;;;;;;;;;2.52;75.34;98415.28;4957445;28;19922;-86
2021/12/26 21:47:10;;;;;;;;;;;;;;;2.51;75.44;98408.38;4974162;28;19933;-89
2021/12/26 21:49:37;;;;;;;;;;;;;;;2.52;75.41;98405.72;4973691;28;19922;-90
2021/12/26 21:52:02;;;;;;;;;;;;;;;2.56;75.53;98406.44;4974274;28;19977;-89
2021/12/26 21:54:27;;;;;;;;;;;;;;;2.56;75.32;98410.84;4957742;28;20029;-92
2021/12/26 21:56:54;;;;;;;;;;;;;;;2.58;75.55;98416.88;4974747;28;19922;-92
2021/12/26 21:59:22;;;;;;;;;;;;;;;2.61;75.44;98412.38;4974730;28;20017;-91
2021/12/26 22:01:47;;;;;;;;;;;;;;;2.65;75.37;98411.38;4975162;28;19923;-89
2021/12/26 22:04:13;;;;;;;;;;;;;;;2.62;75.26;98413.25;4972917;28;20016;-89
2021/12/26 22:06:38;;;;;;;;;;;;;;;2.63;75.34;98402.75;4957651;28;19934;-88
2021/12/26 22:09:04;;;;;;;;;;;;;;;2.66;75.35;98407.84;4957463;28;19957;-89
2021/12/26 22:11:29;;;;;;;;;;;;;;;2.70;75.39;98406.00;4973773;28;20357;-92
2021/12/26 22:13:55;;;;;;;;;;;;;;;2.70;75.43;98406.00;4974338;28;19958;-90
2021/12/26 22:16:20;;;;;;;;;;;;;;;2.68;75.35;98398.22;4974424;28;19929;-90
2021/12/26 22:18:45;;;;;;;;;;;;;;;2.71;75.43;98399.84;4972480;28;19922;-89
2021/12/26 22:21:10;;;;;;;;;;;;;;;2.75;75.30;98404.09;4954784;28;19926;-91
2021/12/26 22:23:36;;;;;;;;;;;;;;;2.75;75.49;98408.47;4957070;28;19930;-90
2021/12/26 22:26:01;;;;;;;;;;;;;;;2.77;75.39;98406.66;4956794;28;20466;-88
2021/12/26 22:28:27;;;;;;;;;;;;;;;2.80;75.47;98396.94;4956745;28;19923;-88
2021/12/26 22:30:52;;;;;;;;;;;;;;;2.84;75.56;98409.03;4957075;28;20090;-86